Terminal Aerodrome Forecast
Issued by NWS

Current Version | Previous Version | Graphics & Text | Print | Product List | Glossary On
Versions: 1 2 3 4 5 6 7 8 9 10 11 12 13 14 15 16 17 18 19 20 21
188
FTUS41 KRLX 081516 AAA
TAFCKB
TAF AMD
KCKB 081516Z 0815/0912 14004KT P6SM OVC040
     FM082000 22006KT 5SM -SHRA BR OVC008
     FM082200 18007KT 6SM -SHRA BR OVC012
     FM090400 20004KT 1SM -SHSN BR OVC007=

USA.gov is the U.S. government's official web portal to all federal, state and local government web resources and services.